sensor_id;sensor_type;location;lat;lon;timestamp;pressure;altitude;pressure_sealevel;temperature;humidity
21129;BME280;10722;51.910;8.352;2023-09-19T00:02:42;99966.88;;;15.66;100.00
21129;BME280;10722;51.910;8.352;2023-09-19T00:05:29;99979.94;;;15.65;100.00
21129;BME280;10722;51.910;8.352;2023-09-19T00:08:14;99977.31;;;15.66;100.00
21129;BME280;10722;51.910;8.352;2023-09-19T00:10:59;99966.88;;;15.66;100.00
21129;BME280;10722;51.910;8.352;2023-09-19T00:13:47;99975.53;;;15.70;100.00
21129;BME280;10722;51.910;8.352;2023-09-19T00:16:33;99981.63;;;15.71;100.00
21129;BME280;10722;51.910;8.352;2023-09-19T00:19:18;99977.09;;;15.82;100.00
21129;BME280;10722;51.910;8.352;2023-09-19T00:22:04;99976.28;;;15.77;100.00
21129;BME280;10722;51.910;8.352;2023-09-19T00:24:49;99980.66;;;15.76;100.00
21129;BME280;10722;51.910;8.352;2023-09-19T00:27:33;99980.69;;;15.75;100.00
21129;BME280;10722;51.910;8.352;2023-09-19T00:30:18;99982.41;;;15.77;100.00
21129;BME280;10722;51.910;8.352;2023-09-19T00:33:04;99987.75;;;15.66;100.00
21129;BME280;10722;51.910;8.352;2023-09-19T00:35:53;99984.13;;;15.78;100.00
21129;BME280;10722;51.910;8.352;2023-09-19T00:38:38;99996.31;;;15.76;100.00
21129;BME280;10722;51.910;8.352;2023-09-19T00:41:23;99991.22;;;15.68;100.00
21129;BME280;10722;51.910;8.352;2023-09-19T00:44:08;99982.50;;;15.71;100.00
21129;BME280;10722;51.910;8.352;2023-09-19T00:46:53;99983.41;;;15.68;100.00
21129;BME280;10722;51.910;8.352;2023-09-19T00:49:38;99992.09;;;15.66;100.00
21129;BME280;10722;51.910;8.352;2023-09-19T00:52:24;99994.72;;;15.64;100.00
21129;BME280;10722;51.910;8.352;2023-09-19T00:55:11;100008.66;;;15.63;100.00
21129;BME280;10722;51.910;8.352;2023-09-19T00:57:56;100000.88;;;15.60;100.00
21129;BME280;10722;51.910;8.352;2023-09-19T01:00:42;100019.03;;;15.65;100.00
21129;BME280;10722;51.910;8.352;2023-09-19T01:03:27;100016.44;;;15.65;100.00
21129;BME280;10722;51.910;8.352;2023-09-19T01:06:13;100007.00;;;15.56;100.00
21129;BME280;10722;51.910;8.352;2023-09-19T01:08:57;100009.50;;;15.62;100.00
21129;BME280;10722;51.910;8.352;2023-09-19T01:11:46;100018.22;;;15.63;100.00
21129;BME280;10722;51.910;8.352;2023-09-19T01:14:59;100001.56;;;15.75;100.00
21129;BME280;10722;51.910;8.352;2023-09-19T01:17:50;100009.44;;;15.72;100.00
21129;BME280;10722;51.910;8.352;2023-09-19T01:20:44;100007.66;;;15.74;100.00
21129;BME280;10722;51.910;8.352;2023-09-19T01:30:17;100004.16;;;15.75;100.00
21129;BME280;10722;51.910;8.352;2023-09-19T01:33:05;100009.34;;;15.78;100.00
21129;BME280;10722;51.910;8.352;2023-09-19T01:35:52;100000.59;;;15.80;100.00
21129;BME280;10722;51.910;8.352;2023-09-19T01:38:37;100005.88;;;15.77;100.00
21129;BME280;10722;51.910;8.352;2023-09-19T01:44:48;100004.00;;;15.85;100.00
21129;BME280;10722;51.910;8.352;2023-09-19T01:47:48;100016.31;;;15.76;100.00
21129;BME280;10722;51.910;8.352;2023-09-19T01:50:54;100015.47;;;15.74;100.00
21129;BME280;10722;51.910;8.352;2023-09-19T01:56:57;100027.75;;;15.68;100.00
21129;BME280;10722;51.910;8.352;2023-09-19T01:59:50;100030.34;;;15.68;100.00
21129;BME280;10722;51.910;8.352;2023-09-19T02:02:38;100021.63;;;15.68;100.00
21129;BME280;10722;51.910;8.352;2023-09-19T02:05:25;100025.19;;;15.59;100.00
21129;BME280;10722;51.910;8.352;2023-09-19T02:08:10;100031.31;;;15.58;100.00
21129;BME280;10722;51.910;8.352;2023-09-19T02:10:55;100032.25;;;15.54;100.00
21129;BME280;10722;51.910;8.352;2023-09-19T02:13:40;100023.69;;;15.46;100.00
21129;BME280;10722;51.910;8.352;2023-09-19T02:16:27;100038.47;;;15.42;100.00
21129;BME280;10722;51.910;8.352;2023-09-19T02:19:12;100034.16;;;15.41;100.00
21129;BME280;10722;51.910;8.352;2023-09-19T02:21:58;100041.19;;;15.35;100.00
21129;BME280;10722;51.910;8.352;2023-09-19T02:24:43;100044.72;;;15.32;100.00
21129;BME280;10722;51.910;8.352;2023-09-19T02:27:28;100048.16;;;15.33;100.00
21129;BME280;10722;51.910;8.352;2023-09-19T02:30:13;100048.22;;;15.30;100.00
21129;BME280;10722;51.910;8.352;2023-09-19T02:32:58;100054.34;;;15.24;100.00
21129;BME280;10722;51.910;8.352;2023-09-19T02:35:44;100044.72;;;15.31;100.00
21129;BME280;10722;51.910;8.352;2023-09-19T02:38:29;100045.81;;;15.13;100.00
21129;BME280;10722;51.910;8.352;2023-09-19T02:41:14;100040.63;;;15.10;100.00
21129;BME280;10722;51.910;8.352;2023-09-19T02:43:59;100060.63;;;15.08;100.00
21129;BME280;10722;51.910;8.352;2023-09-19T02:46:44;100065.03;;;15.02;100.00
21129;BME280;10722;51.910;8.352;2023-09-19T02:49:29;100067.63;;;15.02;100.00
21129;BME280;10722;51.910;8.352;2023-09-19T02:52:15;100063.31;;;15.01;100.00
21129;BME280;10722;51.910;8.352;2023-09-19T02:55:00;100068.56;;;14.98;100.00
21129;BME280;10722;51.910;8.352;2023-09-19T02:57:46;100073.84;;;14.92;100.00
21129;BME280;10722;51.910;8.352;2023-09-19T03:00:31;100082.50;;;14.93;100.00
21129;BME280;10722;51.910;8.352;2023-09-19T03:03:16;100075.63;;;14.87;100.00
21129;BME280;10722;51.910;8.352;2023-09-19T03:06:01;100081.75;;;14.80;100.00
21129;BME280;10722;51.910;8.352;2023-09-19T03:08:47;100097.41;;;14.77;100.00
21129;BME280;10722;51.910;8.352;2023-09-19T03:11:33;100094.81;;;14.77;100.00
21129;BME280;10722;51.910;8.352;2023-09-19T03:14:17;100100.91;;;14.76;100.00
21129;BME280;10722;51.910;8.352;2023-09-19T03:17:02;100118.19;;;14.85;100.00
21129;BME280;10722;51.910;8.352;2023-09-19T03:19:48;100107.69;;;14.91;100.00
21129;BME280;10722;51.910;8.352;2023-09-19T03:22:32;100105.19;;;14.82;100.00
21129;BME280;10722;51.910;8.352;2023-09-19T03:25:17;100102.66;;;14.75;100.00
21129;BME280;10722;51.910;8.352;2023-09-19T03:28:03;100111.28;;;14.77;100.00
21129;BME280;10722;51.910;8.352;2023-09-19T03:31:02;100116.63;;;14.64;100.00
21129;BME280;10722;51.910;8.352;2023-09-19T03:33:47;100117.59;;;14.53;100.00
21129;BME280;10722;51.910;8.352;2023-09-19T03:36:32;100119.34;;;14.45;100.00
21129;BME280;10722;51.910;8.352;2023-09-19T03:39:17;100120.22;;;14.47;100.00
21129;BME280;10722;51.910;8.352;2023-09-19T03:42:03;100119.31;;;14.48;100.00
21129;BME280;10722;51.910;8.352;2023-09-19T03:44:48;100109.81;;;14.46;100.00
21129;BME280;10722;51.910;8.352;2023-09-19T03:47:33;100114.19;;;14.41;100.00
21129;BME280;10722;51.910;8.352;2023-09-19T03:50:18;100116.84;;;14.34;100.00
21129;BME280;10722;51.910;8.352;2023-09-19T03:53:03;100118.63;;;14.26;100.00
21129;BME280;10722;51.910;8.352;2023-09-19T03:55:48;100116.00;;;14.31;100.00
21129;BME280;10722;51.910;8.352;2023-09-19T03:58:33;100111.69;;;14.24;100.00
21129;BME280;10722;51.910;8.352;2023-09-19T04:01:18;100113.47;;;14.20;100.00
21129;BME280;10722;51.910;8.352;2023-09-19T04:04:04;100110.00;;;14.18;100.00
21129;BME280;10722;51.910;8.352;2023-09-19T04:06:49;100106.53;;;14.21;100.00
21129;BME280;10722;51.910;8.352;2023-09-19T04:09:34;100103.94;;;14.16;100.00
21129;BME280;10722;51.910;8.352;2023-09-19T04:12:19;100103.94;;;14.19;100.00
21129;BME280;10722;51.910;8.352;2023-09-19T04:15:05;100105.63;;;14.22;100.00
21129;BME280;10722;51.910;8.352;2023-09-19T04:17:50;100091.78;;;14.21;100.00
21129;BME280;10722;51.910;8.352;2023-09-19T04:20:36;100091.03;;;14.04;100.00
21129;BME280;10722;51.910;8.352;2023-09-19T04:23:21;100089.34;;;13.95;100.00
21129;BME280;10722;51.910;8.352;2023-09-19T04:26:06;100092.81;;;13.96;100.00
21129;BME280;10722;51.910;8.352;2023-09-19T04:28:51;100090.13;;;14.09;100.00
21129;BME280;10722;51.910;8.352;2023-09-19T04:31:36;100085.00;;;14.00;100.00
21129;BME280;10722;51.910;8.352;2023-09-19T04:34:21;100094.53;;;13.98;100.00
21129;BME280;10722;51.910;8.352;2023-09-19T04:37:07;100108.44;;;13.93;100.00
21129;BME280;10722;51.910;8.352;2023-09-19T04:39:52;100110.19;;;13.90;100.00
21129;BME280;10722;51.910;8.352;2023-09-19T04:42:37;100109.34;;;13.82;100.00
21129;BME280;10722;51.910;8.352;2023-09-19T04:45:23;100108.50;;;13.79;100.00
21129;BME280;10722;51.910;8.352;2023-09-19T04:48:08;100118.88;;;13.86;100.00
21129;BME280;10722;51.910;8.352;2023-09-19T04:50:53;100116.25;;;13.88;100.00
21129;BME280;10722;51.910;8.352;2023-09-19T04:53:38;100121.47;;;13.91;99.65
21129;BME280;10722;51.910;8.352;2023-09-19T04:56:24;100126.72;;;13.79;99.86
21129;BME280;10722;51.910;8.352;2023-09-19T04:59:09;100130.16;;;13.82;99.79
21129;BME280;10722;51.910;8.352;2023-09-19T05:01:54;100124.94;;;13.82;99.47
21129;BME280;10722;51.910;8.352;2023-09-19T05:04:40;100137.13;;;13.77;99.47
21129;BME280;10722;51.910;8.352;2023-09-19T05:07:25;100138.84;;;13.77;99.34
21129;BME280;10722;51.910;8.352;2023-09-19T05:10:10;100143.16;;;13.79;98.98
21129;BME280;10722;51.910;8.352;2023-09-19T05:12:55;100137.16;;;13.73;99.09
21129;BME280;10722;51.910;8.352;2023-09-19T05:15:40;100135.38;;;13.76;98.65
21129;BME280;10722;51.910;8.352;2023-09-19T05:18:25;100143.22;;;13.70;98.44
21129;BME280;10722;51.910;8.352;2023-09-19T05:21:10;100137.16;;;13.73;98.25
21129;BME280;10722;51.910;8.352;2023-09-19T05:23:55;100132.84;;;13.68;98.30
21129;BME280;10722;51.910;8.352;2023-09-19T05:26:40;100141.53;;;13.64;98.38
21129;BME280;10722;51.910;8.352;2023-09-19T05:29:24;100152.78;;;13.66;98.48
21129;BME280;10722;51.910;8.352;2023-09-19T05:32:10;100159.69;;;13.67;98.06
21129;BME280;10722;51.910;8.352;2023-09-19T05:34:55;100169.22;;;13.70;97.85
21129;BME280;10722;51.910;8.352;2023-09-19T05:37:40;100172.72;;;13.66;97.60
21129;BME280;10722;51.910;8.352;2023-09-19T05:40:25;100175.34;;;13.63;97.53
21129;BME280;10722;51.910;8.352;2023-09-19T05:43:11;100181.34;;;13.71;97.46
21129;BME280;10722;51.910;8.352;2023-09-19T05:45:56;100174.38;;;13.79;96.62
21129;BME280;10722;51.910;8.352;2023-09-19T05:48:41;100169.19;;;13.76;96.21
21129;BME280;10722;51.910;8.352;2023-09-19T05:51:25;100177.00;;;13.76;96.33
21129;BME280;10722;51.910;8.352;2023-09-19T05:54:10;100178.72;;;13.76;96.40
21129;BME280;10722;51.910;8.352;2023-09-19T05:56:55;100183.06;;;13.78;96.15
21129;BME280;10722;51.910;8.352;2023-09-19T05:59:40;100181.28;;;13.91;95.44
21129;BME280;10722;51.910;8.352;2023-09-19T06:02:25;100181.31;;;13.83;95.35
21129;BME280;10722;51.910;8.352;2023-09-19T06:05:10;100178.69;;;13.91;95.00
21129;BME280;10722;51.910;8.352;2023-09-19T06:07:55;100181.22;;;13.99;94.96
21129;BME280;10722;51.910;8.352;2023-09-19T06:10:40;100175.19;;;13.90;94.50
21129;BME280;10722;51.910;8.352;2023-09-19T06:13:29;100175.06;;;14.10;94.24
21129;BME280;10722;51.910;8.352;2023-09-19T06:16:14;100163.81;;;14.10;94.00
21129;BME280;10722;51.910;8.352;2023-09-19T06:18:59;100155.97;;;14.16;93.54
21129;BME280;10722;51.910;8.352;2023-09-19T06:21:44;100150.66;;;14.34;94.00
21129;BME280;10722;51.910;8.352;2023-09-19T06:24:29;100144.59;;;14.34;93.86
21129;BME280;10722;51.910;8.352;2023-09-19T06:27:14;100145.44;;;14.39;93.93
21129;BME280;10722;51.910;8.352;2023-09-19T06:29:59;100138.34;;;14.58;92.60
21129;BME280;10722;51.910;8.352;2023-09-19T06:32:44;100137.56;;;14.45;92.52
21129;BME280;10722;51.910;8.352;2023-09-19T06:35:32;100138.44;;;14.46;92.23
21129;BME280;10722;51.910;8.352;2023-09-19T06:38:17;100140.22;;;14.39;92.15
21129;BME280;10722;51.910;8.352;2023-09-19T06:41:02;100150.63;;;14.42;92.29
21129;BME280;10722;51.910;8.352;2023-09-19T06:43:48;100165.34;;;14.43;92.15
21129;BME280;10722;51.910;8.352;2023-09-19T06:46:33;100159.28;;;14.41;92.11
21129;BME280;10722;51.910;8.352;2023-09-19T06:49:18;100169.72;;;14.38;92.32
21129;BME280;10722;51.910;8.352;2023-09-19T06:52:03;100168.00;;;14.37;91.72
21129;BME280;10722;51.910;8.352;2023-09-19T06:54:49;100155.81;;;14.41;91.80
21129;BME280;10722;51.910;8.352;2023-09-19T06:57:34;100158.41;;;14.41;91.63
21129;BME280;10722;51.910;8.352;2023-09-19T07:00:19;100177.53;;;14.35;92.06
21129;BME280;10722;51.910;8.352;2023-09-19T07:03:07;100168.84;;;14.38;91.66
21129;BME280;10722;51.910;8.352;2023-09-19T07:05:52;100173.13;;;14.46;91.90
21129;BME280;10722;51.910;8.352;2023-09-19T07:08:38;100183.59;;;14.35;92.07
21129;BME280;10722;51.910;8.352;2023-09-19T07:11:23;100187.06;;;14.39;92.09
21129;BME280;10722;51.910;8.352;2023-09-19T07:14:08;100203.53;;;14.40;92.34
21129;BME280;10722;51.910;8.352;2023-09-19T07:16:53;100215.72;;;14.34;92.59
21129;BME280;10722;51.910;8.352;2023-09-19T07:19:38;100215.72;;;14.31;92.87
21129;BME280;10722;51.910;8.352;2023-09-19T07:22:23;100220.03;;;14.37;92.70
21129;BME280;10722;51.910;8.352;2023-09-19T07:25:08;100224.34;;;14.38;92.76
21129;BME280;10722;51.910;8.352;2023-09-19T07:27:59;100216.53;;;14.47;92.14
21129;BME280;10722;51.910;8.352;2023-09-19T07:30:45;100223.38;;;14.61;92.31
21129;BME280;10722;51.910;8.352;2023-09-19T07:33:30;100220.78;;;14.61;91.96
21129;BME280;10722;51.910;8.352;2023-09-19T07:36:15;100225.91;;;14.71;91.82
21129;BME280;10722;51.910;8.352;2023-09-19T07:39:00;100225.03;;;14.72;91.75
21129;BME280;10722;51.910;8.352;2023-09-19T07:42:04;100221.50;;;14.79;91.53
21129;BME280;10722;51.910;8.352;2023-09-19T07:44:49;100204.13;;;14.85;90.52
21129;BME280;10722;51.910;8.352;2023-09-19T07:47:35;100201.53;;;14.82;90.52
21129;BME280;10722;51.910;8.352;2023-09-19T07:50:20;100212.72;;;14.93;90.49
21129;BME280;10722;51.910;8.352;2023-09-19T07:53:04;100211.00;;;14.90;90.13
21129;BME280;10722;51.910;8.352;2023-09-19T07:55:50;100204.84;;;14.99;89.65
21129;BME280;10722;51.910;8.352;2023-09-19T07:58:39;100194.38;;;15.05;89.24
21129;BME280;10722;51.910;8.352;2023-09-19T08:01:24;100183.97;;;15.05;88.91
21129;BME280;10722;51.910;8.352;2023-09-19T08:04:10;100183.88;;;15.14;88.88
21129;BME280;10722;51.910;8.352;2023-09-19T08:06:55;100191.56;;;15.25;89.00
21129;BME280;10722;51.910;8.352;2023-09-19T08:09:40;100189.75;;;15.33;88.16
21129;BME280;10722;51.910;8.352;2023-09-19T08:12:25;100184.59;;;15.30;87.86
21129;BME280;10722;51.910;8.352;2023-09-19T08:15:10;100185.41;;;15.34;87.71
21129;BME280;10722;51.910;8.352;2023-09-19T08:17:55;100188.75;;;15.45;87.53
21129;BME280;10722;51.910;8.352;2023-09-19T08:20:40;100173.19;;;15.39;87.37
21129;BME280;10722;51.910;8.352;2023-09-19T08:23:25;100180.97;;;15.42;87.02
21129;BME280;10722;51.910;8.352;2023-09-19T08:26:10;100186.22;;;15.40;87.00
21129;BME280;10722;51.910;8.352;2023-09-19T08:28:55;100187.94;;;15.43;86.78
21129;BME280;10722;51.910;8.352;2023-09-19T08:31:41;100199.16;;;15.50;86.83
21129;BME280;10722;51.910;8.352;2023-09-19T08:34:26;100199.03;;;15.60;86.84
21129;BME280;10722;51.910;8.352;2023-09-19T08:37:11;100198.25;;;15.52;86.43
21129;BME280;10722;51.910;8.352;2023-09-19T08:39:57;100205.06;;;15.62;86.89
21129;BME280;10722;51.910;8.352;2023-09-19T08:42:53;100221.44;;;15.77;86.87
21129;BME280;10722;51.910;8.352;2023-09-19T08:45:38;100200.63;;;15.75;86.11
21129;BME280;10722;51.910;8.352;2023-09-19T08:48:25;100202.28;;;15.79;85.70
21129;BME280;10722;51.910;8.352;2023-09-19T08:51:17;100211.66;;;15.97;85.96
21129;BME280;10722;51.910;8.352;2023-09-19T08:54:07;100208.28;;;15.87;85.50
21129;BME280;10722;51.910;8.352;2023-09-19T08:56:54;100205.66;;;15.89;85.27
21129;BME280;10722;51.910;8.352;2023-09-19T08:59:39;100202.94;;;15.98;84.78
21129;BME280;10722;51.910;8.352;2023-09-19T09:02:26;100222.06;;;15.99;84.67
21129;BME280;10722;51.910;8.352;2023-09-19T09:05:12;100200.25;;;16.04;84.52
21129;BME280;10722;51.910;8.352;2023-09-19T09:07:58;100202.94;;;15.98;84.23
21129;BME280;10722;51.910;8.352;2023-09-19T09:10:44;100198.63;;;15.97;84.19
21129;BME280;10722;51.910;8.352;2023-09-19T09:13:30;100204.50;;;16.10;83.66
21129;BME280;10722;51.910;8.352;2023-09-19T09:16:15;100205.28;;;16.20;84.32
21129;BME280;10722;51.910;8.352;2023-09-19T09:19:00;100195.03;;;16.06;83.67
21129;BME280;10722;51.910;8.352;2023-09-19T09:21:45;100205.47;;;16.06;84.28
21129;BME280;10722;51.910;8.352;2023-09-19T09:24:31;100184.72;;;15.97;83.55
21129;BME280;10722;51.910;8.352;2023-09-19T09:27:16;100186.28;;;16.08;83.41
21129;BME280;10722;51.910;8.352;2023-09-19T09:30:01;100198.44;;;16.11;83.19
21129;BME280;10722;51.910;8.352;2023-09-19T09:32:46;100187.09;;;16.10;83.33
21129;BME280;10722;51.910;8.352;2023-09-19T09:35:52;100187.75;;;16.28;82.74
21129;BME280;10722;51.910;8.352;2023-09-19T09:38:47;100157.25;;;16.30;81.62
21129;BME280;10722;51.910;8.352;2023-09-19T09:41:36;100163.88;;;16.54;81.82
21129;BME280;10722;51.910;8.352;2023-09-19T09:44:21;100140.47;;;16.48;80.34
21129;BME280;10722;51.910;8.352;2023-09-19T09:47:06;100129.69;;;16.66;80.19
21129;BME280;10722;51.910;8.352;2023-09-19T09:49:52;100128.16;;;16.54;79.95
21129;BME280;10722;51.910;8.352;2023-09-19T09:52:44;100139.41;;;16.59;80.07
21129;BME280;10722;51.910;8.352;2023-09-19T09:58:51;100145.19;;;16.80;80.03
21129;BME280;10722;51.910;8.352;2023-09-19T10:01:47;100122.88;;;16.57;79.12
21129;BME280;10722;51.910;8.352;2023-09-19T10:04:32;100131.25;;;16.81;79.12
21129;BME280;10722;51.910;8.352;2023-09-19T10:07:29;100101.69;;;16.76;77.62
21129;BME280;10722;51.910;8.352;2023-09-19T10:10:15;100145.91;;;16.90;78.47
21129;BME280;10722;51.910;8.352;2023-09-19T10:13:14;100138.97;;;16.86;78.27
21129;BME280;10722;51.910;8.352;2023-09-19T10:16:05;100165.88;;;16.92;78.18
21129;BME280;10722;51.910;8.352;2023-09-19T10:18:53;100136.53;;;16.76;77.38
21129;BME280;10722;51.910;8.352;2023-09-19T10:21:40;100119.91;;;16.82;77.51
21129;BME280;10722;51.910;8.352;2023-09-19T10:24:26;100141.97;;;16.61;77.67
21129;BME280;10722;51.910;8.352;2023-09-19T10:27:11;100164.34;;;16.79;78.27
21129;BME280;10722;51.910;8.352;2023-09-19T10:29:57;100158.19;;;16.83;78.18
21129;BME280;10722;51.910;8.352;2023-09-19T10:32:44;100177.13;;;16.96;77.97
21129;BME280;10722;51.910;8.352;2023-09-19T10:35:32;100172.53;;;17.09;77.92
21129;BME280;10722;51.910;8.352;2023-09-19T10:38:18;100165.41;;;17.17;77.41
21129;BME280;10722;51.910;8.352;2023-09-19T10:41:04;100158.50;;;17.14;76.87
21129;BME280;10722;51.910;8.352;2023-09-19T10:43:51;100130.97;;;16.95;75.66
21129;BME280;10722;51.910;8.352;2023-09-19T10:46:38;100155.06;;;17.12;76.32
21129;BME280;10722;51.910;8.352;2023-09-19T10:49:24;100144.34;;;17.26;76.00
21129;BME280;10722;51.910;8.352;2023-09-19T10:52:09;100143.41;;;17.30;75.15
21129;BME280;10722;51.910;8.352;2023-09-19T10:54:55;100130.31;;;17.30;74.70
21129;BME280;10722;51.910;8.352;2023-09-19T10:57:44;100121.16;;;17.53;74.61
21129;BME280;10722;51.910;8.352;2023-09-19T11:00:30;100127.78;;;17.27;74.26
21129;BME280;10722;51.910;8.352;2023-09-19T11:06:06;100125.16;;;17.27;74.34
21129;BME280;10722;51.910;8.352;2023-09-19T11:31:43;100031.81;;;18.10;69.01
21129;BME280;10722;51.910;8.352;2023-09-19T11:40:14;100023.34;;;18.34;68.31
21129;BME280;10722;51.910;8.352;2023-09-19T11:42:59;100048.16;;;18.54;68.62
21129;BME280;10722;51.910;8.352;2023-09-19T11:48:30;100039.03;;;18.36;67.89
21129;BME280;10722;51.910;8.352;2023-09-19T11:51:24;100040.13;;;18.60;67.81
21129;BME280;10722;51.910;8.352;2023-09-19T11:54:14;100033.69;;;18.73;67.54
21129;BME280;10722;51.910;8.352;2023-09-19T11:57:00;100063.72;;;18.60;67.87
21129;BME280;10722;51.910;8.352;2023-09-19T11:59:46;100045.28;;;18.63;68.14
21129;BME280;10722;51.910;8.352;2023-09-19T12:02:42;100052.81;;;18.78;67.53
21129;BME280;10722;51.910;8.352;2023-09-19T12:05:31;100052.56;;;18.18;67.27
21129;BME280;10722;51.910;8.352;2023-09-19T12:08:17;100061.44;;;18.48;67.31
21129;BME280;10722;51.910;8.352;2023-09-19T12:11:04;100031.94;;;18.40;66.61
21129;BME280;10722;51.910;8.352;2023-09-19T12:13:49;100069.78;;;18.62;67.56
21129;BME280;10722;51.910;8.352;2023-09-19T12:16:35;100047.31;;;19.17;66.56
21129;BME280;10722;51.910;8.352;2023-09-19T12:19:21;100007.22;;;19.14;65.06
21129;BME280;10722;51.910;8.352;2023-09-19T12:22:06;99971.53;;;19.10;63.69
21129;BME280;10722;51.910;8.352;2023-09-19T12:24:52;99972.47;;;19.37;63.44
21129;BME280;10722;51.910;8.352;2023-09-19T12:27:48;99991.50;;;19.14;63.58
21129;BME280;10722;51.910;8.352;2023-09-19T12:30:33;99995.50;;;19.55;63.24
21129;BME280;10722;51.910;8.352;2023-09-19T12:33:19;99982.16;;;19.35;63.41
21129;BME280;10722;51.910;8.352;2023-09-19T12:36:23;99983.72;;;19.11;63.83
21129;BME280;10722;51.910;8.352;2023-09-19T12:39:09;99968.22;;;19.03;62.95
21129;BME280;10722;51.910;8.352;2023-09-19T12:41:54;99991.75;;;18.73;64.07
21129;BME280;10722;51.910;8.352;2023-09-19T12:44:44;100037.31;;;19.00;64.97
21129;BME280;10722;51.910;8.352;2023-09-19T12:47:29;100028.84;;;19.81;63.76
21129;BME280;10722;51.910;8.352;2023-09-19T12:50:15;99981.13;;;19.40;62.81
21129;BME280;10722;51.910;8.352;2023-09-19T12:53:00;99967.53;;;18.98;63.04
21129;BME280;10722;51.910;8.352;2023-09-19T12:55:46;99983.97;;;19.33;63.47
21129;BME280;10722;51.910;8.352;2023-09-19T12:58:31;99968.75;;;19.14;62.99
21129;BME280;10722;51.910;8.352;2023-09-19T13:01:17;99995.88;;;19.15;63.23
21129;BME280;10722;51.910;8.352;2023-09-19T13:04:18;99956.59;;;19.69;61.57
21129;BME280;10722;51.910;8.352;2023-09-19T13:07:04;99958.50;;;20.18;60.64
21129;BME280;10722;51.910;8.352;2023-09-19T13:10:03;99935.81;;;19.62;60.97
21129;BME280;10722;51.910;8.352;2023-09-19T13:12:48;99922.53;;;19.68;60.83
21129;BME280;10722;51.910;8.352;2023-09-19T13:15:51;99951.03;;;19.51;61.29
21129;BME280;10722;51.910;8.352;2023-09-19T13:18:47;99966.31;;;19.38;62.00
21129;BME280;10722;51.910;8.352;2023-09-19T13:21:33;99965.00;;;19.81;61.70
21129;BME280;10722;51.910;8.352;2023-09-19T13:24:24;99978.88;;;19.84;61.63
21129;BME280;10722;51.910;8.352;2023-09-19T13:27:10;99952.47;;;19.89;60.78
21129;BME280;10722;51.910;8.352;2023-09-19T13:29:55;99952.06;;;19.75;60.95
21129;BME280;10722;51.910;8.352;2023-09-19T13:32:41;99983.97;;;19.89;62.18
21129;BME280;10722;51.910;8.352;2023-09-19T13:35:26;99957.88;;;19.84;61.27
21129;BME280;10722;51.910;8.352;2023-09-19T13:38:11;99968.44;;;19.55;61.27
21129;BME280;10722;51.910;8.352;2023-09-19T13:40:58;99975.19;;;19.62;62.03
21129;BME280;10722;51.910;8.352;2023-09-19T13:43:44;99989.97;;;19.66;62.14
21129;BME280;10722;51.910;8.352;2023-09-19T13:46:29;99976.28;;;19.55;62.36
21129;BME280;10722;51.910;8.352;2023-09-19T13:49:14;99976.44;;;19.78;62.41
21129;BME280;10722;51.910;8.352;2023-09-19T13:51:59;99950.94;;;19.54;61.47
21129;BME280;10722;51.910;8.352;2023-09-19T13:54:45;99962.88;;;19.64;61.15
21129;BME280;10722;51.910;8.352;2023-09-19T13:57:31;99942.38;;;19.48;61.24
21129;BME280;10722;51.910;8.352;2023-09-19T14:00:16;99942.28;;;19.52;61.22
21129;BME280;10722;51.910;8.352;2023-09-19T14:03:01;99933.03;;;19.68;60.95
21129;BME280;10722;51.910;8.352;2023-09-19T14:05:46;99933.25;;;19.60;60.89
21129;BME280;10722;51.910;8.352;2023-09-19T14:08:32;99929.44;;;19.70;60.45
21129;BME280;10722;51.910;8.352;2023-09-19T14:11:17;99937.38;;;19.69;60.48
21129;BME280;10722;51.910;8.352;2023-09-19T14:14:02;99937.31;;;19.42;60.82
21129;BME280;10722;51.910;8.352;2023-09-19T14:16:47;99940.94;;;19.38;61.27
21129;BME280;10722;51.910;8.352;2023-09-19T14:19:33;99978.75;;;19.59;62.35
21129;BME280;10722;51.910;8.352;2023-09-19T14:22:18;99969.94;;;19.62;61.83
21129;BME280;10722;51.910;8.352;2023-09-19T14:25:04;99993.75;;;19.84;62.72
21129;BME280;10722;51.910;8.352;2023-09-19T14:27:49;99990.66;;;19.99;63.24
21129;BME280;10722;51.910;8.352;2023-09-19T14:30:34;100007.59;;;20.15;63.54
21129;BME280;10722;51.910;8.352;2023-09-19T14:33:19;99986.16;;;20.03;62.56
21129;BME280;10722;51.910;8.352;2023-09-19T14:36:08;99983.66;;;19.98;62.48
21129;BME280;10722;51.910;8.352;2023-09-19T14:38:55;99987.44;;;19.89;63.13
21129;BME280;10722;51.910;8.352;2023-09-19T14:41:40;99971.34;;;19.74;62.56
21129;BME280;10722;51.910;8.352;2023-09-19T14:44:25;99972.63;;;19.60;62.34
21129;BME280;10722;51.910;8.352;2023-09-19T14:47:10;99980.06;;;19.46;63.16
21129;BME280;10722;51.910;8.352;2023-09-19T14:49:56;99994.72;;;19.23;63.57
21129;BME280;10722;51.910;8.352;2023-09-19T14:52:40;100026.00;;;19.30;64.56
21129;BME280;10722;51.910;8.352;2023-09-19T14:55:25;100013.78;;;19.29;64.27
21129;BME280;10722;51.910;8.352;2023-09-19T14:58:11;99997.69;;;19.41;63.70
21129;BME280;10722;51.910;8.352;2023-09-19T15:03:48;100010.19;;;19.33;62.82
21129;BME280;10722;51.910;8.352;2023-09-19T15:06:33;100005.13;;;19.26;62.81
21129;BME280;10722;51.910;8.352;2023-09-19T15:09:18;100006.91;;;19.26;62.95
21129;BME280;10722;51.910;8.352;2023-09-19T15:12:03;100020.00;;;19.26;63.51
21129;BME280;10722;51.910;8.352;2023-09-19T15:14:48;100047.09;;;19.26;64.27
21129;BME280;10722;51.910;8.352;2023-09-19T15:17:34;100050.50;;;19.29;64.17
21129;BME280;10722;51.910;8.352;2023-09-19T15:20:20;100009.25;;;19.35;62.14
21129;BME280;10722;51.910;8.352;2023-09-19T15:23:05;99971.69;;;19.61;60.72
21129;BME280;10722;51.910;8.352;2023-09-19T15:25:50;99950.50;;;19.69;60.33